createdAt,value
2023-02-15T00:01:18.555Z,79.08
2023-02-15T00:03:46.216Z,78.92
2023-02-15T00:06:13.976Z,79.19
2023-02-15T00:08:41.638Z,79.40
2023-02-15T00:11:09.297Z,78.95
2023-02-15T00:13:37.471Z,78.69
2023-02-15T00:16:05.248Z,78.90
2023-02-15T00:18:32.960Z,78.79
2023-02-15T00:21:00.663Z,79.11
2023-02-15T00:23:28.641Z,79.09
2023-02-15T00:25:56.291Z,78.87
2023-02-15T00:28:24.669Z,79.37
2023-02-15T00:30:52.557Z,78.88
2023-02-15T00:33:20.299Z,78.88
2023-02-15T00:35:47.970Z,78.85
2023-02-15T00:38:15.621Z,78.95
2023-02-15T00:40:43.287Z,78.92
2023-02-15T00:43:10.968Z,79.06
2023-02-15T00:45:38.729Z,79.50
2023-02-15T00:48:06.383Z,79.15
2023-02-15T00:50:34.032Z,79.19
2023-02-15T00:53:01.697Z,79.41
2023-02-15T00:55:29.458Z,78.81
2023-02-15T00:57:57.125Z,79.27
2023-02-15T01:00:24.781Z,79.00
2023-02-15T01:02:52.443Z,79.34
2023-02-15T01:05:20.413Z,79.23
2023-02-15T01:07:48.179Z,79.18
2023-02-15T01:10:15.843Z,79.29
2023-02-15T01:12:43.604Z,79.36
2023-02-15T01:15:11.266Z,79.46
2023-02-15T01:17:39.030Z,79.34
2023-02-15T01:20:06.794Z,79.29
2023-02-15T01:22:34.455Z,79.38
2023-02-15T01:25:02.120Z,79.38
2023-02-15T01:27:31.830Z,79.14
2023-02-15T01:29:59.626Z,78.93
2023-02-15T01:32:27.868Z,78.83
2023-02-15T01:34:55.632Z,78.97
2023-02-15T01:37:23.293Z,78.94
2023-02-15T01:39:50.995Z,79.08
2023-02-15T01:42:18.719Z,78.75
2023-02-15T01:44:46.589Z,79.15
2023-02-15T01:47:14.246Z,79.19
2023-02-15T01:49:42.640Z,79.21
2023-02-15T01:52:10.387Z,79.03
2023-02-15T01:54:38.149Z,78.89
2023-02-15T01:57:05.814Z,78.70
2023-02-15T01:59:33.475Z,78.97
2023-02-15T02:02:01.236Z,79.16
2023-02-15T02:04:28.896Z,79.29
2023-02-15T02:06:56.557Z,79.13
2023-02-15T02:09:24.322Z,79.11
2023-02-15T02:11:53.007Z,79.13
2023-02-15T02:14:20.771Z,79.19
2023-02-15T02:16:48.537Z,79.08
2023-02-15T02:19:16.198Z,78.89
2023-02-15T02:21:43.963Z,78.95
2023-02-15T02:24:11.727Z,79.05
2023-02-15T02:26:39.488Z,79.08
2023-02-15T02:29:07.149Z,78.95
2023-02-15T02:31:34.890Z,79.15
2023-02-15T02:34:02.678Z,79.56
2023-02-15T02:36:30.340Z,79.10
2023-02-15T02:38:58.002Z,78.97
2023-02-15T02:41:25.765Z,79.09
2023-02-15T02:43:53.530Z,79.09
2023-02-15T02:46:21.736Z,79.54
2023-02-15T02:48:49.569Z,79.47
2023-02-15T02:51:22.450Z,79.12
2023-02-15T02:53:50.214Z,79.45
2023-02-15T02:56:18.082Z,79.70
2023-02-15T02:58:45.746Z,79.50
2023-02-15T03:01:13.513Z,79.59
2023-02-15T03:03:41.273Z,79.35
2023-02-15T03:06:09.037Z,79.52
2023-02-15T03:08:36.698Z,79.55
2023-02-15T03:11:04.362Z,79.23
2023-02-15T03:13:32.329Z,79.11
2023-02-15T03:16:18.810Z,79.10
2023-02-15T03:18:53.949Z,78.68
2023-02-15T03:21:23.350Z,78.91
2023-02-15T03:23:51.140Z,78.68
2023-02-15T03:26:18.812Z,79.30
2023-02-15T03:28:46.469Z,78.68
2023-02-15T03:31:14.375Z,78.56
2023-02-15T03:33:42.203Z,78.71
2023-02-15T03:36:09.960Z,78.64
2023-02-15T03:38:37.636Z,78.55
2023-02-15T03:41:11.429Z,78.72
2023-02-15T03:43:39.106Z,78.63
2023-02-15T03:46:06.852Z,78.83
2023-02-15T03:48:34.615Z,79.00
2023-02-15T03:51:21.227Z,78.76
2023-02-15T03:53:48.982Z,78.82
2023-02-15T03:56:16.647Z,78.04
2023-02-15T03:59:03.060Z,78.55
2023-02-15T04:01:54.162Z,78.92
2023-02-15T04:04:22.808Z,79.04
2023-02-15T04:06:51.835Z,78.78
2023-02-15T04:09:38.542Z,78.93
2023-02-15T04:12:06.311Z,78.63
2023-02-15T04:14:52.606Z,78.90
2023-02-15T04:17:20.267Z,78.77
2023-02-15T04:20:06.870Z,78.58
2023-02-15T04:22:53.124Z,78.73
2023-02-15T04:25:21.249Z,78.67
2023-02-15T04:27:49.001Z,78.45
2023-02-15T04:30:16.754Z,78.61
2023-02-15T04:32:44.642Z,78.29
2023-02-15T04:35:12.599Z,78.39
2023-02-15T04:37:40.362Z,78.66
2023-02-15T04:40:08.033Z,78.30
2023-02-15T04:42:35.685Z,78.68
2023-02-15T04:45:03.449Z,78.56
2023-02-15T04:47:31.214Z,78.23
2023-02-15T04:49:58.984Z,78.54
2023-02-15T04:52:26.741Z,78.32
2023-02-15T04:54:54.504Z,78.32
2023-02-15T04:57:22.270Z,78.30
2023-02-15T04:59:50.040Z,78.25
2023-02-15T05:02:17.797Z,78.39
2023-02-15T05:04:45.560Z,78.41
2023-02-15T05:07:13.209Z,78.20
2023-02-15T05:09:40.885Z,78.11
2023-02-15T05:12:08.658Z,78.29
2023-02-15T05:14:36.310Z,77.93
2023-02-15T05:17:04.483Z,78.17
2023-02-15T05:19:32.143Z,77.96
2023-02-15T05:22:00.112Z,78.05
2023-02-15T05:24:47.398Z,77.94
2023-02-15T05:27:33.736Z,77.92
2023-02-15T05:30:01.548Z,78.20
2023-02-15T05:32:29.470Z,78.31
2023-02-15T05:34:57.337Z,78.11
2023-02-15T05:37:25.220Z,77.62
2023-02-15T05:39:52.969Z,77.97
2023-02-15T05:42:20.631Z,78.14
2023-02-15T05:44:48.293Z,78.28
2023-02-15T05:47:15.955Z,78.24
2023-02-15T05:49:43.616Z,78.06
2023-02-15T05:52:13.337Z,77.85
2023-02-15T05:54:41.091Z,77.67
2023-02-15T05:57:08.760Z,77.73
2023-02-15T05:59:36.414Z,78.06
2023-02-15T06:02:04.184Z,77.97
2023-02-15T06:04:31.941Z,77.93
2023-02-15T06:06:59.605Z,77.97
2023-02-15T06:09:27.369Z,77.81
2023-02-15T06:11:55.029Z,78.01
2023-02-15T06:14:22.704Z,78.01
2023-02-15T06:16:50.352Z,77.76
2023-02-15T06:19:18.018Z,77.89
2023-02-15T06:21:45.665Z,78.02
2023-02-15T06:24:13.444Z,77.89
2023-02-15T06:26:41.103Z,78.40
2023-02-15T06:29:08.865Z,78.08
2023-02-15T06:31:36.744Z,78.24
2023-02-15T06:34:04.816Z,78.16
2023-02-15T06:36:32.984Z,77.93
2023-02-15T06:39:00.758Z,78.04
2023-02-15T06:41:28.502Z,78.14
2023-02-15T06:43:56.264Z,77.77
2023-02-15T06:46:24.083Z,77.67
2023-02-15T06:48:51.898Z,77.94
2023-02-15T06:51:19.660Z,78.04
2023-02-15T06:53:47.424Z,78.06
2023-02-15T06:56:15.086Z,77.84
2023-02-15T06:58:42.752Z,77.91
2023-02-15T07:01:10.606Z,77.91
2023-02-15T07:03:38.484Z,77.67
2023-02-15T07:06:09.374Z,77.81
2023-02-15T07:08:37.283Z,77.71
2023-02-15T07:11:23.577Z,77.32
2023-02-15T07:13:51.237Z,77.57
2023-02-15T07:16:18.954Z,77.45
2023-02-15T07:18:46.766Z,77.52
2023-02-15T07:21:14.546Z,77.46
2023-02-15T07:23:42.294Z,77.67
2023-02-15T07:26:10.165Z,77.37
2023-02-15T07:28:37.819Z,77.41
2023-02-15T07:31:05.540Z,77.61
2023-02-15T07:33:33.294Z,77.21
2023-02-15T07:36:02.247Z,77.41
2023-02-15T07:38:30.215Z,77.16
2023-02-15T07:40:57.867Z,77.12
2023-02-15T07:43:25.534Z,77.46
2023-02-15T07:45:53.320Z,77.00
2023-02-15T07:48:21.878Z,77.23
2023-02-15T07:50:50.973Z,77.40
2023-02-15T07:53:18.735Z,77.58
2023-02-15T07:55:46.604Z,77.69
2023-02-15T07:58:14.265Z,77.39
2023-02-15T08:01:02.918Z,77.88
2023-02-15T08:03:30.694Z,77.35
2023-02-15T08:05:59.790Z,77.38
2023-02-15T08:08:33.685Z,76.98
2023-02-15T08:11:20.289Z,77.75
2023-02-15T08:13:54.829Z,77.62
2023-02-15T08:16:22.618Z,77.55
2023-02-15T08:18:50.446Z,77.36
2023-02-15T08:21:18.212Z,77.63
2023-02-15T08:23:45.902Z,77.36
2023-02-15T08:26:13.739Z,77.56
2023-02-15T08:28:41.608Z,77.42
2023-02-15T08:31:09.416Z,77.39
2023-02-15T08:33:37.545Z,77.06
2023-02-15T08:36:05.310Z,77.08
2023-02-15T08:38:33.891Z,77.34
2023-02-15T08:41:01.936Z,77.27
2023-02-15T08:43:29.832Z,77.38
2023-02-15T08:45:57.528Z,77.26
2023-02-15T08:48:25.364Z,77.11
2023-02-15T08:50:53.127Z,77.30
2023-02-15T08:53:22.753Z,77.26
2023-02-15T08:55:52.540Z,77.33
2023-02-15T08:58:20.305Z,77.32
2023-02-15T09:00:47.989Z,77.22
2023-02-15T09:03:15.838Z,76.97
2023-02-15T09:05:43.493Z,76.64
2023-02-15T09:08:11.262Z,76.89
2023-02-15T09:10:38.921Z,77.17
2023-02-15T09:13:06.682Z,77.10
2023-02-15T09:15:34.350Z,77.18
2023-02-15T09:18:07.133Z,77.30
2023-02-15T09:20:34.786Z,76.91
2023-02-15T09:23:02.555Z,76.98
2023-02-15T09:25:30.314Z,76.88
2023-02-15T09:27:58.081Z,76.91
2023-02-15T09:30:25.965Z,76.66
2023-02-15T09:32:53.914Z,76.72
2023-02-15T09:35:21.674Z,76.77
2023-02-15T09:37:49.347Z,76.79
2023-02-15T09:40:17.102Z,77.26
2023-02-15T09:42:44.761Z,76.99
2023-02-15T09:45:12.421Z,76.77
2023-02-15T09:47:40.197Z,76.60
2023-02-15T09:50:07.975Z,76.58
2023-02-15T09:52:35.964Z,76.92
2023-02-15T09:55:03.685Z,76.73
2023-02-15T09:57:31.347Z,76.63
2023-02-15T09:59:59.113Z,76.22
2023-02-15T10:02:26.772Z,76.64
2023-02-15T10:04:54.612Z,76.50
2023-02-15T10:07:22.510Z,76.52
2023-02-15T10:09:50.270Z,76.33
2023-02-15T10:12:18.139Z,76.38
2023-02-15T10:14:45.899Z,76.31
2023-02-15T10:17:14.176Z,76.26
2023-02-15T10:19:41.951Z,76.19
2023-02-15T10:22:09.705Z,76.13
2023-02-15T10:24:40.613Z,76.18
2023-02-15T10:27:08.822Z,76.19
2023-02-15T10:29:37.401Z,75.85
2023-02-15T10:32:06.003Z,75.93
2023-02-15T10:34:33.724Z,75.74
2023-02-15T10:37:01.413Z,75.76
2023-02-15T10:39:29.683Z,76.08
2023-02-15T10:41:57.858Z,75.82
2023-02-15T10:44:25.522Z,75.99
2023-02-15T10:46:53.281Z,76.14
2023-02-15T10:49:21.442Z,76.02
2023-02-15T10:51:49.115Z,75.86
2023-02-15T10:54:16.778Z,75.85
2023-02-15T10:56:44.542Z,76.06
2023-02-15T10:59:12.212Z,75.52
2023-02-15T11:01:40.094Z,75.39
2023-02-15T11:04:17.449Z,75.12
2023-02-15T11:06:49.421Z,75.08
2023-02-15T11:09:19.380Z,75.39
2023-02-15T11:11:47.620Z,75.25
2023-02-15T11:14:15.380Z,75.26
2023-02-15T11:16:43.139Z,75.11
2023-02-15T11:19:10.903Z,75.54
2023-02-15T11:21:40.306Z,75.43
2023-02-15T11:24:07.974Z,75.32
2023-02-15T11:26:35.946Z,74.61
2023-02-15T11:29:03.707Z,74.29
2023-02-15T11:31:31.549Z,74.36
2023-02-15T11:33:59.647Z,74.51
2023-02-15T11:36:27.298Z,74.66
2023-02-15T11:38:55.063Z,74.46
2023-02-15T11:41:22.825Z,74.32
2023-02-15T11:43:50.590Z,73.77
2023-02-15T11:46:19.962Z,73.98
2023-02-15T11:48:47.857Z,73.68
2023-02-15T11:51:15.622Z,73.52
2023-02-15T11:53:44.423Z,73.15
2023-02-15T11:56:12.174Z,73.01
2023-02-15T11:58:39.837Z,72.98
2023-02-15T12:01:07.465Z,73.13
2023-02-15T12:03:35.328Z,72.76
2023-02-15T12:06:03.037Z,71.94
2023-02-15T12:08:31.102Z,72.34
2023-02-15T12:10:59.199Z,72.28
2023-02-15T12:13:26.928Z,72.32
2023-02-15T12:15:54.609Z,72.16
2023-02-15T12:18:22.672Z,72.23
2023-02-15T12:20:50.323Z,72.44
2023-02-15T12:23:17.984Z,72.56
2023-02-15T12:25:46.366Z,72.66
2023-02-15T12:28:14.126Z,72.57
2023-02-15T12:30:41.795Z,72.01
2023-02-15T12:33:09.456Z,71.92
2023-02-15T12:35:37.221Z,71.58
2023-02-15T12:38:04.880Z,71.43
2023-02-15T12:40:32.683Z,71.86
2023-02-15T12:43:00.710Z,71.57
2023-02-15T12:45:28.480Z,71.65
2023-02-15T12:47:56.239Z,71.05
2023-02-15T12:50:24.007Z,71.08
2023-02-15T12:52:51.772Z,71.35
2023-02-15T12:55:19.531Z,71.41
2023-02-15T12:57:48.523Z,71.48
2023-02-15T13:00:16.188Z,70.56
2023-02-15T13:02:44.156Z,70.43
2023-02-15T13:05:17.252Z,70.11
2023-02-15T13:07:45.010Z,70.05
2023-02-15T13:10:12.684Z,69.70
2023-02-15T13:12:40.466Z,70.11
2023-02-15T13:15:08.199Z,70.38
2023-02-15T13:17:36.098Z,69.79
2023-02-15T13:20:04.550Z,69.58
2023-02-15T13:22:32.210Z,69.39
2023-02-15T13:24:59.973Z,69.38
2023-02-15T13:27:27.635Z,68.93
2023-02-15T13:29:55.417Z,68.62
2023-02-15T13:32:23.212Z,68.72
2023-02-15T13:34:51.042Z,68.71
2023-02-15T13:37:18.901Z,69.05
2023-02-15T13:39:46.669Z,68.48
2023-02-15T13:42:14.526Z,68.77
2023-02-15T13:44:42.292Z,68.89
2023-02-15T13:47:10.054Z,68.51
2023-02-15T13:49:37.718Z,68.42
2023-02-15T13:52:05.551Z,68.19
2023-02-15T13:54:33.245Z,68.32
2023-02-15T13:57:02.237Z,68.34
2023-02-15T13:59:29.900Z,68.28
2023-02-15T14:01:57.663Z,68.10
2023-02-15T14:04:25.358Z,68.00
2023-02-15T14:06:53.192Z,68.14
2023-02-15T14:09:20.955Z,67.58
2023-02-15T14:11:48.627Z,67.67
2023-02-15T14:14:16.276Z,68.06
2023-02-15T14:16:48.050Z,68.00
2023-02-15T14:19:23.576Z,67.36
2023-02-15T14:21:51.237Z,66.78
2023-02-15T14:24:18.899Z,67.03
2023-02-15T14:26:46.560Z,66.94
2023-02-15T14:29:14.320Z,66.69
2023-02-15T14:31:42.814Z,66.18
2023-02-15T14:34:10.667Z,66.42
2023-02-15T14:36:38.328Z,66.55
2023-02-15T14:39:06.800Z,66.60
2023-02-15T14:41:34.573Z,66.63
2023-02-15T14:44:02.469Z,66.64
2023-02-15T14:46:30.209Z,66.24
2023-02-15T14:48:57.971Z,66.60
2023-02-15T14:51:25.611Z,66.09
2023-02-15T14:53:53.305Z,65.87
2023-02-15T14:56:21.069Z,65.62
2023-02-15T14:58:48.927Z,65.65
2023-02-15T15:01:16.619Z,65.60
2023-02-15T15:03:44.384Z,65.86
2023-02-15T15:06:12.120Z,66.08
2023-02-15T15:08:42.550Z,66.43
2023-02-15T15:11:42.074Z,66.41
2023-02-15T15:14:10.541Z,67.01
2023-02-15T15:16:38.515Z,66.53
2023-02-15T15:19:07.414Z,66.72
2023-02-15T15:21:35.051Z,66.79
2023-02-15T15:24:02.730Z,67.08
2023-02-15T15:26:31.092Z,66.99
2023-02-15T15:28:58.855Z,66.92
2023-02-15T15:31:26.723Z,67.03
2023-02-15T15:33:54.692Z,67.27
2023-02-15T15:36:22.351Z,67.66
2023-02-15T15:38:50.113Z,68.03
2023-02-15T15:41:17.775Z,67.98
2023-02-15T15:43:45.541Z,67.69
2023-02-15T15:46:13.238Z,67.58
2023-02-15T15:48:40.968Z,67.93
2023-02-15T15:51:08.728Z,68.02
2023-02-15T15:53:36.491Z,68.06
2023-02-15T15:56:04.418Z,67.98
2023-02-15T15:58:32.940Z,68.02
2023-02-15T16:01:00.813Z,68.05
2023-02-15T16:03:28.601Z,68.29
2023-02-15T16:05:56.768Z,68.37
2023-02-15T16:08:24.514Z,68.41
2023-02-15T16:10:52.170Z,68.59
2023-02-15T16:13:19.937Z,68.57
2023-02-15T16:15:50.768Z,68.69
2023-02-15T16:18:18.644Z,68.69
2023-02-15T16:20:46.300Z,68.69
2023-02-15T16:23:14.988Z,68.88
2023-02-15T16:25:42.748Z,69.02
2023-02-15T16:28:10.614Z,68.90
2023-02-15T16:30:38.644Z,68.87
2023-02-15T16:33:06.657Z,68.85
2023-02-15T16:35:34.728Z,68.98
2023-02-15T16:38:02.492Z,69.05
2023-02-15T16:40:30.159Z,69.18
2023-02-15T16:43:01.199Z,69.07
2023-02-15T16:45:28.851Z,69.08
2023-02-15T16:47:56.527Z,69.14
2023-02-15T16:50:24.581Z,69.32
2023-02-15T16:52:52.655Z,69.42
2023-02-15T16:55:20.429Z,69.38
2023-02-15T16:57:48.052Z,69.37
2023-02-15T17:00:15.751Z,69.65
2023-02-15T17:02:56.037Z,69.67
2023-02-15T17:05:24.693Z,69.79
2023-02-15T17:07:52.670Z,69.92
2023-02-15T17:10:20.422Z,69.97
2023-02-15T17:12:48.289Z,70.21
2023-02-15T17:15:15.913Z,70.20
2023-02-15T17:17:43.714Z,70.47
2023-02-15T17:20:11.375Z,70.27
2023-02-15T17:22:39.144Z,70.13
2023-02-15T17:25:06.907Z,70.23
2023-02-15T17:27:36.197Z,70.45
2023-02-15T17:30:04.373Z,70.63
2023-02-15T17:32:32.365Z,70.46
2023-02-15T17:35:00.417Z,70.75
2023-02-15T17:37:28.437Z,70.87
2023-02-15T17:39:56.249Z,70.89
2023-02-15T17:42:24.017Z,71.16
2023-02-15T17:44:51.777Z,70.98
2023-02-15T17:47:19.437Z,71.10
2023-02-15T17:49:47.201Z,71.19
2023-02-15T17:52:15.171Z,70.91
2023-02-15T17:55:01.889Z,71.60
2023-02-15T17:57:29.541Z,71.43
2023-02-15T18:00:16.148Z,71.34
2023-02-15T18:03:02.660Z,71.48
2023-02-15T18:05:49.261Z,71.52
2023-02-15T18:08:35.868Z,71.53
2023-02-15T18:11:22.543Z,71.42
2023-02-15T18:13:50.239Z,71.57
2023-02-15T18:16:18.218Z,71.44
2023-02-15T18:18:46.276Z,71.54
2023-02-15T18:21:15.064Z,71.64
2023-02-15T18:23:42.840Z,71.75
2023-02-15T18:26:10.593Z,71.06
2023-02-15T18:28:38.368Z,71.59
2023-02-15T18:31:06.298Z,71.54
2023-02-15T18:33:34.802Z,71.76
2023-02-15T18:36:02.667Z,71.84
2023-02-15T18:38:30.839Z,72.03
2023-02-15T18:40:58.603Z,72.07
2023-02-15T18:43:26.371Z,72.03
2023-02-15T18:45:54.152Z,72.01
2023-02-15T18:48:21.899Z,72.24
2023-02-15T18:50:49.553Z,72.40
2023-02-15T18:53:17.215Z,72.20
2023-02-15T18:55:44.978Z,72.69
2023-02-15T18:58:12.743Z,72.35
2023-02-15T19:00:40.712Z,72.12
2023-02-15T19:03:08.481Z,72.52
2023-02-15T19:05:36.448Z,72.65
2023-02-15T19:08:04.126Z,72.87
2023-02-15T19:10:31.872Z,72.57
2023-02-15T19:12:59.555Z,72.28
2023-02-15T19:15:27.326Z,72.40
2023-02-15T19:17:55.089Z,72.39
2023-02-15T19:20:23.034Z,72.54
2023-02-15T19:22:50.800Z,72.60
2023-02-15T19:25:18.465Z,72.82
2023-02-15T19:27:46.948Z,72.69
2023-02-15T19:30:14.650Z,72.90
2023-02-15T19:32:42.368Z,73.05
2023-02-15T19:35:10.030Z,72.65
2023-02-15T19:37:37.696Z,72.73
2023-02-15T19:40:05.361Z,72.62
2023-02-15T19:42:34.853Z,72.99
2023-02-15T19:45:02.620Z,73.02
2023-02-15T19:47:30.384Z,72.93
2023-02-15T19:50:03.708Z,73.10
2023-02-15T19:52:31.444Z,72.86
2023-02-15T19:54:59.513Z,73.04
2023-02-15T19:57:29.124Z,72.84
2023-02-15T19:59:56.889Z,72.80
2023-02-15T20:02:24.546Z,72.58
2023-02-15T20:04:52.379Z,73.27
2023-02-15T20:07:20.072Z,73.27
2023-02-15T20:09:47.760Z,72.97
2023-02-15T20:12:15.399Z,72.68
2023-02-15T20:14:43.471Z,72.70
2023-02-15T20:17:11.234Z,72.67
2023-02-15T20:19:40.542Z,72.67
2023-02-15T20:22:08.192Z,72.55
2023-02-15T20:24:35.854Z,72.33
2023-02-15T20:27:03.520Z,72.66
2023-02-15T20:29:31.181Z,72.12
2023-02-15T20:32:01.671Z,72.11
2023-02-15T20:34:29.475Z,72.04
2023-02-15T20:36:57.132Z,72.08
2023-02-15T20:39:24.999Z,72.09
2023-02-15T20:41:52.659Z,72.07
2023-02-15T20:44:20.425Z,72.04
2023-02-15T20:46:48.264Z,71.93
2023-02-15T20:49:16.166Z,71.63
2023-02-15T20:51:44.636Z,71.92
2023-02-15T20:54:12.297Z,71.94
2023-02-15T20:56:40.171Z,71.71
2023-02-15T20:59:08.440Z,71.60
2023-02-15T21:01:36.221Z,71.69
2023-02-15T21:04:03.980Z,71.81
2023-02-15T21:06:31.735Z,71.58
2023-02-15T21:08:59.400Z,71.50
2023-02-15T21:11:27.773Z,71.47
2023-02-15T21:13:55.537Z,71.49
2023-02-15T21:16:23.276Z,71.62
2023-02-15T21:18:51.067Z,71.44
2023-02-15T21:21:18.931Z,71.63
2023-02-15T21:23:46.694Z,71.43
2023-02-15T21:26:14.466Z,71.57
2023-02-15T21:28:42.234Z,71.42
2023-02-15T21:31:10.056Z,71.48
2023-02-15T21:33:37.959Z,71.58
2023-02-15T21:36:05.621Z,71.44
2023-02-15T21:38:33.688Z,71.59
2023-02-15T21:41:21.318Z,71.24
2023-02-15T21:44:07.720Z,71.56
2023-02-15T21:46:54.147Z,71.81
2023-02-15T21:49:21.884Z,71.56
2023-02-15T21:52:09.652Z,71.47
2023-02-15T21:54:37.481Z,71.55
2023-02-15T21:57:05.245Z,71.43
2023-02-15T21:59:33.316Z,71.46
2023-02-15T22:02:01.182Z,71.65
2023-02-15T22:04:28.959Z,71.39
2023-02-15T22:06:56.812Z,71.46
2023-02-15T22:09:24.581Z,71.51
2023-02-15T22:11:52.356Z,71.58
2023-02-15T22:14:20.103Z,71.49
2023-02-15T22:16:47.766Z,71.35
2023-02-15T22:19:15.426Z,71.24
2023-02-15T22:21:43.195Z,71.70
2023-02-15T22:24:10.955Z,71.71
2023-02-15T22:26:38.614Z,71.77
2023-02-15T22:29:06.283Z,71.59
2023-02-15T22:31:34.115Z,71.62
2023-02-15T22:34:02.825Z,71.72
2023-02-15T22:36:30.712Z,71.60
2023-02-15T22:38:58.454Z,71.66
2023-02-15T22:41:26.120Z,71.47
2023-02-15T22:43:53.779Z,71.72
2023-02-15T22:46:21.546Z,71.88
2023-02-15T22:48:49.316Z,71.39
2023-02-15T22:51:17.070Z,71.69
2023-02-15T22:53:44.942Z,71.86
2023-02-15T22:56:12.733Z,71.90
2023-02-15T22:58:40.465Z,71.54
2023-02-15T23:01:08.437Z,71.92
2023-02-15T23:03:36.150Z,71.39
2023-02-15T23:06:04.472Z,71.90
2023-02-15T23:08:32.242Z,72.01
2023-02-15T23:11:00.005Z,71.71
2023-02-15T23:13:27.766Z,71.68
2023-02-15T23:15:55.532Z,71.67
2023-02-15T23:18:23.304Z,71.82
2023-02-15T23:20:51.480Z,71.70
2023-02-15T23:23:19.236Z,71.80
2023-02-15T23:25:46.893Z,71.67
2023-02-15T23:28:14.656Z,71.79
2023-02-15T23:30:42.423Z,71.81
2023-02-15T23:33:10.081Z,71.86
2023-02-15T23:35:37.743Z,72.02
2023-02-15T23:38:05.508Z,71.85
2023-02-15T23:40:52.217Z,71.64
2023-02-15T23:43:19.981Z,71.95
2023-02-15T23:45:47.674Z,71.96
2023-02-15T23:48:45.000Z,71.98
2023-02-15T23:51:12.660Z,71.79
2023-02-15T23:53:40.321Z,72.01
2023-02-15T23:56:07.984Z,71.82
2023-02-15T23:58:35.758Z,72.24
